Decoded Metar for KMMV (MACKMINNVILLE in OR, USA) (IATA:MMV) | Meteo·Mobile Aviation Weather
aviador You're here:

KMMV Decoded Metar

MACKMINNVILLE in OR, USA
Report Time2019-02-16 16:53:00
UTC Time2019-02-16 17:47:51
Flight Rules vfr VFR
Wind230° at 11 kt
W.Decomp.*RWY 22: 10.9 kt HW 1.7 kt LCW
RWY 17: 8.3 kt HW 7.2 kt RCW
W.Rank230° ranks 1
Current wind is above 230° avg. (7.4)
Visibility9999 m
Phenomena:Light Rain
Clouds:Broken 034 Hf
Broken 042 Hf
Overcast 055 Hf
Expected CloudBase > 400 ft AGL from Temp-Dew spread
Ceiling3,400 ft
Temp03°C (ISA -12)
Dew Point02°C (93% RH)
AAT-2.6°C
QNH1011 hPa
Density Alt-1,096 ft
Elevation157 ft
Report Wrong Elevation
Raw Report
KMMV 161653Z AUTO 23011KT 8SM -RA BKN034 BKN042 OVC055 03/02 A2986
RMK AO2 SLP113 P0001 T00330022=

Extra information for KMMV:More info

Metar Taf Metar & Taf Last 4 Metars F.Rules Stats Wind Profile Meteogram Temp Stats Airport Information Weather charts Add Link Nearby VenuesMetar ALERT Operation Metar Decoded Social comments

AIRNAV info for KMMV